Time;durP1;ratioP1;P1;durP2;ratioP2;P2;SDS_P1;SDS_P2;PMS_P1;PMS_P2;Temp;Humidity;BMP_temperature;BMP_pressure;BME280_temperature;BME280_humidity;BME280_pressure;Samples;Min_cycle;Max_cycle;Signal;HPM_P1;HPM_P2
2024/04/09 00:02:07;;;;;;;8.48;2.03;;;;;;;24.19;16.86;94016.06;5419568;26;20006;-48
2024/04/09 00:04:36;;;;;;;9.82;2.25;;;;;;;24.22;17.81;94030.63;5444798;26;19997;-46
2024/04/09 00:07:02;;;;;;;6.72;1.67;;;;;;;24.15;17.81;94033.69;5443643;26;20103;-46
2024/04/09 00:09:29;;;;;;;6.13;1.88;;;;;;;24.00;17.33;94024.09;5449372;26;20007;-45
2024/04/09 00:11:58;;;;;;;7.53;2.03;;;;;;;23.86;17.41;94010.00;5419575;26;20010;-46
2024/04/09 00:14:26;;;;;;;13.15;3.05;;;;;;;24.12;17.28;94007.69;5382301;26;20011;-44
2024/04/09 00:16:55;;;;;;;11.63;2.17;;;;;;;24.26;15.95;94015.72;5438036;26;20012;-47
2024/04/09 00:19:23;;;;;;;10.23;2.33;;;;;;;24.19;16.38;94021.38;5439810;26;19995;-45
2024/04/09 00:21:52;;;;;;;12.70;2.30;;;;;;;24.19;15.72;94011.53;5439861;26;20075;-44
2024/04/09 00:24:17;;;;;;;10.05;2.35;;;;;;;24.37;16.02;94017.09;5450073;26;20013;-43
2024/04/09 00:26:43;;;;;;;12.75;2.78;;;;;;;24.46;16.09;94017.19;5416301;26;20003;-44
2024/04/09 00:29:10;;;;;;;12.43;2.40;;;;;;;24.42;17.12;94022.31;5451085;26;20079;-44
2024/04/09 00:31:36;;;;;;;14.38;2.60;;;;;;;24.39;17.11;94006.97;5411812;26;20040;-43
2024/04/09 00:34:02;;;;;;;9.88;2.90;;;;;;;24.37;16.27;94017.88;5428456;26;20344;-48
2024/04/09 00:36:28;;;;;;;11.13;2.80;;;;;;;24.16;16.75;94004.16;5433313;26;20000;-43
2024/04/09 00:38:56;;;;;;;17.50;2.88;;;;;;;24.12;16.08;94003.19;5413626;26;20003;-44
2024/04/09 00:41:22;;;;;;;10.70;2.72;;;;;;;24.27;16.29;93999.44;5449130;26;20009;-46
2024/04/09 00:43:47;;;;;;;11.02;2.30;;;;;;;24.32;16.29;94009.22;5450860;26;19999;-43
2024/04/09 00:46:15;;;;;;;8.15;2.28;;;;;;;24.32;16.49;94004.69;5446215;26;20010;-43
2024/04/09 00:48:44;;;;;;;9.63;2.38;;;;;;;24.28;16.70;94003.69;5431740;26;20035;-43
2024/04/09 00:51:11;;;;;;;10.90;2.50;;;;;;;24.52;17.02;93992.94;5417423;26;20003;-46
2024/04/09 00:53:38;;;;;;;10.43;2.60;;;;;;;24.53;17.16;93999.03;5446800;26;20009;-43
2024/04/09 00:56:05;;;;;;;10.88;2.30;;;;;;;24.47;17.19;94000.97;5450768;26;19995;-43
2024/04/09 00:58:31;;;;;;;17.52;2.80;;;;;;;24.45;16.43;93997.81;5397694;26;20013;-43
2024/04/09 01:00:58;;;;;;;12.27;2.50;;;;;;;24.62;16.58;94002.56;5448503;26;19999;-44
2024/04/09 01:03:24;;;;;;;16.75;2.85;;;;;;;24.74;16.43;94004.72;5444680;26;20010;-43
2024/04/09 01:05:52;;;;;;;16.20;3.00;;;;;;;24.93;16.50;93996.63;5415464;26;20003;-46
2024/04/09 01:08:17;;;;;;;12.27;2.95;;;;;;;25.05;16.22;93999.56;5450435;26;19999;-44
2024/04/09 01:10:43;;;;;;;15.82;3.53;;;;;;;25.08;17.04;94027.47;5416612;26;20009;-45
2024/04/09 01:13:08;;;;;;;10.50;2.80;;;;;;;25.02;15.41;94023.31;5417763;26;20304;-45
2024/04/09 01:15:34;;;;;;;11.10;2.90;;;;;;;24.83;16.55;94020.75;5403723;26;20449;-46
2024/04/09 01:17:59;;;;;;;13.25;3.35;;;;;;;24.94;16.37;94028.25;5450001;26;19999;-47
2024/04/09 01:20:24;;;;;;;13.27;2.67;;;;;;;24.88;15.96;94026.78;5433851;26;20067;-50
2024/04/09 01:22:50;;;;;;;18.65;3.42;;;;;;;24.73;15.45;94024.41;5408333;26;20022;-49
2024/04/09 01:25:15;;;;;;;15.45;3.10;;;;;;;24.87;16.23;94019.88;5440399;26;20431;-46
2024/04/09 01:27:41;;;;;;;14.07;2.67;;;;;;;24.93;16.42;94037.31;5450275;26;20418;-47
2024/04/09 01:30:08;;;;;;;15.27;3.35;;;;;;;24.53;15.26;94021.06;5449631;26;20017;-46
2024/04/09 01:32:34;;;;;;;13.30;2.60;;;;;;;24.84;16.04;94007.19;5444423;26;20011;-43
2024/04/09 01:35:00;;;;;;;10.85;3.10;;;;;;;24.66;16.01;94029.34;5418695;26;20002;-49
2024/04/09 01:37:27;;;;;;;17.92;3.70;;;;;;;24.73;16.19;94019.09;5407855;26;20000;-48
2024/04/09 01:39:52;;;;;;;12.48;2.85;;;;;;;24.68;16.15;94019.22;5437318;26;20082;-49
2024/04/09 01:42:18;;;;;;;15.27;3.45;;;;;;;24.61;16.17;94008.97;5448973;26;20011;-44
2024/04/09 01:44:44;;;;;;;14.35;3.22;;;;;;;24.54;16.15;94013.88;5441517;26;20005;-47
2024/04/09 01:47:10;;;;;;;14.18;2.97;;;;;;;24.67;16.83;94007.78;5434250;26;20028;-47
2024/04/09 01:49:40;;;;;;;11.70;2.90;;;;;;;24.50;16.25;94008.34;5418193;26;20076;-44
2024/04/09 01:52:06;;;;;;;17.45;3.15;;;;;;;24.62;16.92;94007.88;5447555;26;19999;-47
2024/04/09 01:54:32;;;;;;;15.55;3.65;;;;;;;24.54;16.78;94005.91;5394376;26;20013;-48
2024/04/09 01:56:57;;;;;;;14.05;3.30;;;;;;;24.72;16.83;93996.25;5424708;26;20015;-47
2024/04/09 01:59:23;;;;;;;25.08;3.28;;;;;;;24.84;16.56;93990.44;5387751;26;20014;-48
2024/04/09 02:01:48;;;;;;;17.95;3.63;;;;;;;24.86;16.54;94002.34;5385947;26;20017;-47
2024/04/09 02:04:14;;;;;;;19.00;3.40;;;;;;;24.91;16.65;93998.81;5379662;26;20004;-44
2024/04/09 02:06:41;;;;;;;14.18;3.72;;;;;;;24.85;16.55;93992.03;5413126;26;20003;-49
2024/04/09 02:09:07;;;;;;;19.58;3.47;;;;;;;24.82;16.49;93981.97;5446632;26;20084;-47
2024/04/09 02:11:32;;;;;;;19.73;4.00;;;;;;;24.82;16.83;93981.97;5445398;26;20014;-45
2024/04/09 02:13:57;;;;;;;13.27;3.30;;;;;;;25.00;16.65;93994.38;5398615;26;20000;-47
2024/04/09 02:16:23;;;;;;;21.10;3.75;;;;;;;25.15;16.36;93995.91;5387530;26;20014;-44
2024/04/09 02:18:48;;;;;;;17.63;3.13;;;;;;;24.88;16.90;94005.50;5387000;26;20444;-49
2024/04/09 02:21:15;;;;;;;15.57;3.47;;;;;;;25.03;16.93;93998.28;5443829;26;20013;-47
2024/04/09 02:23:44;;;;;;;13.07;2.80;;;;;;;25.02;16.89;94010.00;5417374;26;19999;-49
2024/04/09 02:26:10;;;;;;;19.15;3.58;;;;;;;24.96;16.90;94007.47;5440078;26;20000;-45
2024/04/09 02:28:35;;;;;;;17.95;3.50;;;;;;;24.73;17.45;94008.47;5436321;26;19998;-48
2024/04/09 02:31:04;;;;;;;21.08;3.35;;;;;;;24.68;17.31;94005.91;5433194;26;20332;-48
2024/04/09 02:33:29;;;;;;;19.00;3.40;;;;;;;24.81;16.96;94023.75;5413082;26;19999;-43
2024/04/09 02:36:00;;;;;;;14.38;2.92;;;;;;;24.81;16.28;94020.28;5446063;26;20102;-47
2024/04/09 02:38:25;;;;;;;;;;;;;;;24.94;16.60;94012.31;5432625;26;20002;-44
2024/04/09 02:40:51;;;;;;;14.38;3.13;;;;;;;24.82;17.34;94006.69;5448011;26;19963;-45
2024/04/09 02:43:16;;;;;;;14.13;3.33;;;;;;;24.63;17.36;93998.03;5446874;26;19995;-47
2024/04/09 02:45:42;;;;;;;14.70;3.70;;;;;;;24.83;18.51;94010.13;5416741;26;20450;-46
2024/04/09 02:48:07;;;;;;;14.32;3.45;;;;;;;24.72;17.79;94017.53;5416096;26;20014;-45
2024/04/09 02:50:33;;;;;;;19.27;3.05;;;;;;;24.55;17.68;94020.78;5415602;26;20003;-47
2024/04/09 02:52:58;;;;;;;13.45;2.90;;;;;;;24.50;18.22;94026.97;5417100;26;19994;-49
2024/04/09 02:55:24;;;;;;;12.27;3.25;;;;;;;24.32;18.76;94035.78;5381467;26;19996;-47
2024/04/09 02:57:49;;;;;;;10.38;3.15;;;;;;;24.24;19.76;94029.28;5435865;26;20070;-47
2024/04/09 03:00:19;;;;;;;12.75;2.80;;;;;;;24.22;19.65;94025.31;5435095;26;19999;-44
2024/04/09 03:02:52;;;;;;;13.57;2.70;;;;;;;23.70;20.35;94026.13;5413778;26;20000;-48
2024/04/09 03:05:29;;;;;;;12.00;2.53;;;;;;;23.69;20.39;94037.03;5433973;26;19999;-43
2024/04/09 03:07:55;;;;;;;13.93;2.85;;;;;;;23.51;21.09;94049.22;5441476;26;20013;-45
2024/04/09 03:10:20;;;;;;;10.75;2.75;;;;;;;23.13;21.34;94054.50;5448747;26;19999;-43
2024/04/09 03:12:46;;;;;;;6.70;2.35;;;;;;;23.17;22.62;94058.97;5448603;26;20031;-44
2024/04/09 03:15:11;;;;;;;15.80;2.70;;;;;;;23.02;22.68;94059.13;5423962;26;20011;-44
2024/04/09 03:17:37;;;;;;;9.80;2.40;;;;;;;23.15;22.10;94073.59;5417137;26;20003;-46
2024/04/09 03:20:04;;;;;;;8.07;2.53;;;;;;;22.87;22.73;94073.38;5440408;26;20480;-44
2024/04/09 03:22:30;;;;;;;9.45;2.25;;;;;;;22.68;23.17;94069.88;5435004;26;20014;-44
2024/04/09 03:24:55;;;;;;;12.18;2.75;;;;;;;22.73;23.02;94075.09;5438296;26;20007;-43
2024/04/09 03:27:20;;;;;;;12.63;2.40;;;;;;;22.70;23.55;94083.63;5387033;26;20006;-44
2024/04/09 03:29:49;;;;;;;10.65;2.40;;;;;;;22.42;23.61;94081.50;5416118;26;20473;-46
2024/04/09 03:32:14;;;;;;;11.30;2.50;;;;;;;22.54;23.06;94082.97;5442396;26;20015;-44
2024/04/09 03:34:40;;;;;;;9.73;2.47;;;;;;;22.45;23.47;94078.28;5409585;26;20475;-44
2024/04/09 03:37:05;;;;;;;11.95;2.60;;;;;;;22.07;22.72;94087.88;5396413;26;20348;-45
2024/04/09 03:39:31;;;;;;;11.55;2.60;;;;;;;22.25;23.55;94089.06;5408185;26;20010;-46
2024/04/09 03:41:58;;;;;;;12.13;2.70;;;;;;;21.90;24.06;94093.56;5417422;26;20004;-48
2024/04/09 03:44:23;;;;;;;15.05;2.88;;;;;;;21.86;25.06;94103.91;5444857;26;20013;-44
2024/04/09 03:46:48;;;;;;;18.35;3.30;;;;;;;21.73;25.79;94101.88;5440059;26;19999;-46
2024/04/09 03:49:14;;;;;;;18.98;3.80;;;;;;;21.82;26.13;94105.53;5439764;26;19999;-48
2024/04/09 03:51:39;;;;;;;23.77;3.45;;;;;;;21.69;26.79;94114.06;5416283;26;19999;-45
2024/04/09 03:54:07;;;;;;;19.10;3.85;;;;;;;21.51;26.97;94120.00;5447439;26;20007;-46
2024/04/09 03:56:33;;;;;;;16.33;3.47;;;;;;;21.13;27.74;94132.81;5446198;26;20003;-44
2024/04/09 03:58:58;;;;;;;17.63;3.45;;;;;;;21.09;28.45;94149.25;5446190;26;20017;-43
2024/04/09 04:01:24;;;;;;;18.85;3.42;;;;;;;20.89;28.83;94158.00;5413634;26;20000;-43
2024/04/09 04:03:49;;;;;;;16.52;3.03;;;;;;;20.84;28.81;94168.56;5416059;26;20011;-45
2024/04/09 04:06:15;;;;;;;18.35;3.10;;;;;;;20.74;29.14;94170.47;5434576;26;20000;-43
2024/04/09 04:08:42;;;;;;;18.23;3.20;;;;;;;20.69;29.26;94172.06;5423915;26;20010;-46
2024/04/09 04:11:17;;;;;;;16.55;3.08;;;;;;;20.78;29.50;94176.78;5416351;26;20447;-44
2024/04/09 04:13:42;;;;;;;19.25;3.60;;;;;;;20.79;29.05;94175.72;5464277;26;20077;-45
2024/04/09 04:16:16;;;;;;;12.40;3.15;;;;;;;20.59;30.00;94176.53;5415097;26;20002;-44
2024/04/09 04:18:43;;;;;;;18.73;3.30;;;;;;;20.75;28.85;94172.81;5445021;26;20014;-44
2024/04/09 04:21:15;;;;;;;19.90;3.67;;;;;;;20.37;29.91;94184.69;5414507;26;20003;-44
2024/04/09 04:23:44;;;;;;;18.40;3.92;;;;;;;19.92;30.35;94193.09;5438047;26;19999;-43
2024/04/09 04:26:13;;;;;;;21.50;3.50;;;;;;;19.64;31.54;94214.63;5447378;26;20007;-43
2024/04/09 04:28:43;;;;;;;17.92;3.35;;;;;;;19.70;32.06;94211.78;5450671;26;19999;-43
2024/04/09 04:31:17;;;;;;;18.08;3.40;;;;;;;19.54;31.75;94208.25;5446092;26;20003;-44
2024/04/09 04:33:46;;;;;;;21.05;3.78;;;;;;;19.57;31.95;94214.84;5438331;26;20403;-43
2024/04/09 04:36:13;;;;;;;19.08;3.65;;;;;;;19.58;31.69;94216.47;5450845;26;20006;-43
2024/04/09 04:38:40;;;;;;;15.23;3.28;;;;;;;19.41;32.67;94214.00;5410024;26;20010;-43
2024/04/09 04:41:06;;;;;;;18.40;3.92;;;;;;;19.54;31.52;94212.75;5416234;26;20013;-44
2024/04/09 04:43:33;;;;;;;17.73;3.40;;;;;;;19.60;31.62;94208.28;5433033;26;20011;-44
2024/04/09 04:45:59;;;;;;;16.05;4.13;;;;;;;19.39;32.10;94207.41;5451027;26;20003;-43
2024/04/09 04:48:24;;;;;;;22.98;4.57;;;;;;;19.23;32.78;94203.91;5437181;26;19999;-45
2024/04/09 04:50:52;;;;;;;18.58;3.67;;;;;;;19.49;31.24;94210.88;5410333;26;20009;-43
2024/04/09 04:53:17;;;;;;;12.55;3.25;;;;;;;19.59;31.82;94219.88;5428419;26;20075;-43
2024/04/09 04:55:43;;;;;;;17.90;3.65;;;;;;;19.73;31.77;94218.41;5441649;26;19998;-43
2024/04/09 04:58:09;;;;;;;20.20;3.72;;;;;;;19.57;32.17;94219.34;5415542;26;20103;-43
2024/04/09 05:00:37;;;;;;;19.65;3.38;;;;;;;19.82;32.14;94221.31;5449635;26;20010;-45
2024/04/09 05:03:03;;;;;;;17.38;3.15;;;;;;;19.56;32.20;94220.41;5407171;26;20014;-43
2024/04/09 05:05:29;;;;;;;22.60;4.28;;;;;;;19.73;32.55;94227.09;5383057;26;20014;-47
2024/04/09 05:07:55;;;;;;;19.50;3.47;;;;;;;19.67;31.94;94229.97;5446336;26;20003;-45
2024/04/09 05:10:21;;;;;;;18.92;3.15;;;;;;;19.54;32.43;94239.91;5437932;26;19999;-48
2024/04/09 05:12:50;;;;;;;19.13;3.60;;;;;;;19.25;33.75;94238.72;5449735;26;20013;-50
2024/04/09 05:15:16;;;;;;;23.52;3.35;;;;;;;19.30;33.99;94251.94;5429768;26;20014;-47
2024/04/09 05:17:43;;;;;;;20.52;3.47;;;;;;;19.22;33.63;94250.56;5415599;26;20083;-46
2024/04/09 05:20:11;;;;;;;20.30;3.42;;;;;;;19.41;33.09;94253.56;5402065;26;20011;-47
2024/04/09 05:22:38;;;;;;;20.15;3.50;;;;;;;19.34;33.57;94253.00;5443837;26;20371;-45
2024/04/09 05:25:05;;;;;;;22.13;4.80;;;;;;;19.40;33.52;94262.53;5442933;26;20007;-47
2024/04/09 05:27:30;;;;;;;21.15;6.97;;;;;;;19.49;33.23;94260.97;5444948;26;20002;-46
2024/04/09 05:29:56;;;;;;;26.25;5.78;;;;;;;19.56;33.40;94273.16;5382609;26;20014;-46
2024/04/09 05:32:21;;;;;;;21.63;4.05;;;;;;;19.36;33.92;94269.34;5437554;26;20014;-45
2024/04/09 05:34:46;;;;;;;22.75;4.13;;;;;;;19.32;34.80;94281.47;5428897;26;20007;-45
2024/04/09 05:37:12;;;;;;;16.77;3.10;;;;;;;19.46;33.48;94282.59;5447081;26;20002;-48
2024/04/09 05:39:37;;;;;;;16.42;3.28;;;;;;;19.45;34.06;94304.75;5430025;26;20466;-48
2024/04/09 05:42:03;;;;;;;19.98;3.33;;;;;;;19.21;34.71;94307.00;5382540;26;20010;-47
2024/04/09 05:44:29;;;;;;;19.65;3.65;;;;;;;19.22;35.20;94315.69;5435103;26;20003;-47
2024/04/09 05:46:54;;;;;;;23.77;3.60;;;;;;;19.30;35.69;94326.53;5417974;26;20052;-49
2024/04/09 05:49:22;;;;;;;15.20;3.40;;;;;;;19.61;34.30;94329.38;5400805;26;20019;-45
2024/04/09 05:51:47;;;;;;;20.42;3.38;;;;;;;19.72;34.10;94336.31;5447128;26;20010;-48
2024/04/09 05:54:13;;;;;;;16.50;3.03;;;;;;;20.06;33.74;94332.50;5428541;26;20014;-47
2024/04/09 05:56:38;;;;;;;19.70;3.00;;;;;;;20.27;33.99;94351.84;5418306;26;20002;-46
2024/04/09 05:59:04;;;;;;;19.38;3.22;;;;;;;20.48;33.60;94355.34;5377672;26;20003;-46
2024/04/09 06:01:29;;;;;;;19.42;3.20;;;;;;;20.47;33.45;94356.41;5445202;26;20005;-45
2024/04/09 06:03:54;;;;;;;17.65;3.25;;;;;;;21.18;32.28;94352.28;5443966;26;19995;-46
2024/04/09 06:06:20;;;;;;;16.25;2.85;;;;;;;21.42;31.81;94345.41;5447900;26;19995;-45
2024/04/09 06:08:45;;;;;;;16.83;3.30;;;;;;;21.68;31.41;94371.81;5417366;26;20436;-46
2024/04/09 06:11:11;;;;;;;25.52;4.07;;;;;;;21.95;31.38;94368.06;5412752;26;20000;-44
2024/04/09 06:13:38;;;;;;;23.58;3.70;;;;;;;21.94;31.09;94379.72;5409194;26;20007;-48
2024/04/09 06:16:04;;;;;;;26.17;4.68;;;;;;;22.50;31.08;94384.03;5437921;26;19998;-46
2024/04/09 06:18:29;;;;;;;18.63;3.70;;;;;;;22.11;32.25;94382.06;5415531;26;20439;-45
2024/04/09 06:20:55;;;;;;;19.20;3.47;;;;;;;21.65;33.00;94383.75;5414437;26;20026;-45
2024/04/09 06:23:21;;;;;;;17.15;3.00;;;;;;;21.65;33.72;94375.03;5449465;26;20476;-44
2024/04/09 06:25:58;;;;;;;18.75;3.58;;;;;;;21.69;33.46;94385.88;5449299;26;19999;-45
2024/04/09 06:28:23;;;;;;;18.50;3.40;;;;;;;21.73;33.93;94377.13;5445404;26;20011;-46
2024/04/09 06:30:48;;;;;;;15.73;3.33;;;;;;;21.42;34.14;94379.78;5448815;26;20014;-49
2024/04/09 06:33:14;;;;;;;18.27;3.30;;;;;;;21.18;33.93;94386.66;5448603;26;19994;-46
2024/04/09 06:35:39;;;;;;;15.10;3.65;;;;;;;20.95;34.83;94386.13;5417288;26;20009;-48
2024/04/09 06:38:06;;;;;;;23.65;4.28;;;;;;;21.02;35.10;94397.22;5416512;26;20014;-47
2024/04/09 06:40:32;;;;;;;16.38;3.75;;;;;;;20.95;35.49;94393.25;5450018;26;20463;-47
2024/04/09 06:42:57;;;;;;;15.90;3.83;;;;;;;20.72;35.64;94394.53;5413259;26;19999;-45
2024/04/09 06:45:23;;;;;;;18.02;3.22;;;;;;;21.03;35.50;94403.31;5449985;26;20014;-47
2024/04/09 06:47:48;;;;;;;19.67;3.53;;;;;;;20.90;35.48;94404.59;5416959;26;20008;-45
2024/04/09 06:50:15;;;;;;;21.98;3.30;;;;;;;21.09;35.96;94415.47;5415273;26;20447;-48
2024/04/09 06:52:41;;;;;;;17.60;3.25;;;;;;;21.09;35.28;94415.47;5437173;26;20009;-49
2024/04/09 06:55:07;;;;;;;17.58;3.35;;;;;;;21.73;33.94;94413.38;5446207;26;19998;-46
2024/04/09 06:57:33;;;;;;;18.63;3.72;;;;;;;21.57;35.10;94417.88;5417238;26;20026;-47
2024/04/09 06:59:59;;;;;;;13.63;3.10;;;;;;;21.81;37.07;94437.44;5394386;26;19996;-46
2024/04/09 07:02:24;;;;;;;15.38;3.05;;;;;;;21.80;35.71;94433.22;5445402;26;20067;-44
2024/04/09 07:04:50;;;;;;;21.08;3.30;;;;;;;21.98;36.26;94445.09;5414913;26;19999;-45
2024/04/09 07:07:15;;;;;;;17.50;3.28;;;;;;;21.90;36.83;94463.41;5441725;26;20052;-44
2024/04/09 07:09:41;;;;;;;20.67;3.75;;;;;;;21.79;38.37;94465.25;5449011;26;20003;-44
2024/04/09 07:12:07;;;;;;;19.52;2.97;;;;;;;21.88;38.64;94486.69;5441888;26;20007;-44
2024/04/09 07:14:33;;;;;;;11.57;2.95;;;;;;;21.88;39.32;94492.00;5448312;26;20007;-45
2024/04/09 07:16:58;;;;;;;13.82;2.90;;;;;;;22.11;38.91;94490.63;5446265;26;20064;-47
2024/04/09 07:19:24;;;;;;;12.43;2.83;;;;;;;21.95;39.33;94476.59;5406872;26;19999;-46
2024/04/09 07:21:50;;;;;;;14.75;2.75;;;;;;;22.03;39.85;94473.44;5381550;26;20008;-44
2024/04/09 07:24:15;;;;;;;17.65;2.78;;;;;;;22.06;39.84;94481.63;5447003;26;20017;-45
2024/04/09 07:26:41;;;;;;;16.95;2.75;;;;;;;21.94;40.16;94507.59;5446674;26;20099;-45
2024/04/09 07:29:06;;;;;;;11.90;2.88;;;;;;;21.96;39.68;94496.75;5416496;26;20002;-45
2024/04/09 07:31:33;;;;;;;18.75;2.70;;;;;;;22.06;38.43;94483.47;5410431;26;20019;-44
2024/04/09 07:33:58;;;;;;;12.52;2.75;;;;;;;21.92;39.07;94482.44;5381108;26;19996;-44
2024/04/09 07:36:24;;;;;;;12.10;2.10;;;;;;;21.72;39.67;94486.69;5448198;26;19995;-44
2024/04/09 07:38:49;;;;;;;9.07;2.05;;;;;;;22.12;38.37;94489.56;5443544;26;19995;-44
2024/04/09 07:41:15;;;;;;;8.02;1.95;;;;;;;21.98;37.86;94497.25;5412252;26;20133;-45
2024/04/09 07:43:40;;;;;;;7.47;1.48;;;;;;;21.81;37.21;94497.53;5445363;26;20394;-46
2024/04/09 07:46:07;;;;;;;7.32;1.02;;;;;;;21.79;37.51;94508.38;5447789;26;20035;-44
2024/04/09 07:48:32;;;;;;;5.30;1.17;;;;;;;21.17;37.79;94519.91;5386147;26;19991;-45
2024/04/09 07:50:58;;;;;;;8.30;1.23;;;;;;;20.81;38.87;94522.44;5410379;26;20013;-43
2024/04/09 07:53:23;;;;;;;5.00;1.02;;;;;;;20.76;38.14;94535.66;5432981;26;20031;-45
2024/04/09 07:55:48;;;;;;;7.07;1.10;;;;;;;20.13;39.04;94541.63;5379454;26;20438;-46
2024/04/09 07:58:14;;;;;;;8.60;1.20;;;;;;;20.16;38.94;94540.31;5379986;26;20510;-45
2024/04/09 08:00:41;;;;;;;6.15;0.95;;;;;;;19.89;39.21;94562.28;5442289;26;19999;-45
2024/04/09 08:03:07;;;;;;;6.05;0.93;;;;;;;19.78;39.19;94571.16;5446205;26;19999;-46
2024/04/09 08:05:34;;;;;;;6.13;0.77;;;;;;;19.53;38.77;94594.41;5445988;26;20449;-45
2024/04/09 08:08:00;;;;;;;3.10;0.70;;;;;;;19.06;39.00;94605.50;5449427;26;20013;-43
2024/04/09 08:10:25;;;;;;;3.55;0.50;;;;;;;18.67;39.16;94623.91;5450997;26;20444;-43
2024/04/09 08:12:54;;;;;;;3.20;0.30;;;;;;;18.36;38.88;94633.22;5419505;26;20347;-43
2024/04/09 08:15:21;;;;;;;6.65;0.70;;;;;;;18.11;40.15;94646.78;5446765;26;19995;-43
2024/04/09 08:17:50;;;;;;;2.38;0.50;;;;;;;17.74;40.26;94649.78;5451434;26;19995;-45
2024/04/09 08:20:19;;;;;;;5.07;0.40;;;;;;;17.35;40.90;94665.38;5445999;26;20005;-44
2024/04/09 08:22:49;;;;;;;1.55;0.30;;;;;;;17.27;39.96;94671.00;5415642;26;20035;-43
2024/04/09 08:25:16;;;;;;;1.17;0.28;;;;;;;16.92;40.43;94674.50;5449162;26;19999;-43
2024/04/09 08:27:42;;;;;;;1.60;0.30;;;;;;;16.69;40.19;94699.69;5416508;26;20002;-45
2024/04/09 08:30:12;;;;;;;0.88;0.17;;;;;;;16.54;40.72;94707.22;5406867;26;20002;-43
2024/04/09 08:32:38;;;;;;;1.52;0.45;;;;;;;15.96;41.57;94706.88;5443605;26;20002;-43
2024/04/09 08:35:04;;;;;;;0.45;0.22;;;;;;;15.91;41.51;94714.63;5384673;26;20002;-43
2024/04/09 08:37:29;;;;;;;1.63;0.20;;;;;;;15.87;42.88;94734.44;5440324;26;20049;-45
2024/04/09 08:39:56;;;;;;;0.30;0.20;;;;;;;15.62;42.79;94747.66;5416995;26;19999;-43
2024/04/09 08:42:25;;;;;;;0.70;0.20;;;;;;;15.73;42.89;94753.97;5449224;26;20005;-43
2024/04/09 08:44:51;;;;;;;0.30;0.20;;;;;;;15.70;42.84;94773.56;5449630;26;20015;-43
2024/04/09 08:47:21;;;;;;;2.05;0.28;;;;;;;15.67;44.21;94781.88;5450211;26;19999;-44
2024/04/09 08:49:53;;;;;;;2.08;0.50;;;;;;;15.55;43.91;94786.22;5441896;26;19999;-43
2024/04/09 08:52:20;;;;;;;2.28;0.20;;;;;;;15.39;43.79;94806.75;5449417;26;20010;-43
2024/04/09 08:54:45;;;;;;;2.05;0.20;;;;;;;15.22;44.24;94819.63;5449377;26;20018;-42
2024/04/09 08:57:11;;;;;;;2.15;0.40;;;;;;;15.40;43.45;94823.28;5441592;26;20004;-43
2024/04/09 08:59:37;;;;;;;0.35;0.20;;;;;;;15.54;43.67;94822.13;5418446;26;20018;-44
2024/04/09 09:02:06;;;;;;;4.60;0.38;;;;;;;15.36;43.89;94828.16;5443568;26;19995;-45
2024/04/09 09:04:39;;;;;;;0.98;0.22;;;;;;;15.34;44.92;94834.63;5404602;26;20073;-45
2024/04/09 09:07:12;;;;;;;0.55;0.30;;;;;;;15.45;43.69;94844.41;5446636;26;19999;-44
2024/04/09 09:09:38;;;;;;;0.60;0.60;;;;;;;15.39;43.80;94845.28;5475697;26;20003;-43
2024/04/09 09:12:05;;;;;;;1.13;0.20;;;;;;;15.35;43.64;94850.16;5388347;26;20017;-45
2024/04/09 09:14:30;;;;;;;0.20;0.20;;;;;;;15.37;43.25;94863.03;5387290;26;19999;-49
2024/04/09 09:17:01;;;;;;;1.83;0.30;;;;;;;15.32;43.93;94870.72;5477718;26;20012;-46
2024/04/09 09:19:36;;;;;;;0.40;0.20;;;;;;;15.28;44.05;94878.22;5411956;26;20011;-49
2024/04/09 09:22:09;;;;;;;1.23;0.20;;;;;;;15.18;43.66;94891.81;5409179;26;20031;-48
2024/04/09 09:24:35;;;;;;;1.30;0.20;;;;;;;15.25;43.62;94900.41;5445401;26;20013;-46
2024/04/09 09:27:05;;;;;;;2.50;0.30;;;;;;;15.13;44.24;94904.72;5446432;26;20005;-50
2024/04/09 09:29:31;;;;;;;0.70;0.10;;;;;;;15.10;44.03;94904.34;5414224;26;20011;-44
2024/04/09 09:31:58;;;;;;;0.65;0.20;;;;;;;14.94;44.50;94892.59;5450411;26;20038;-47
2024/04/09 09:34:44;;;;;;;0.77;0.20;;;;;;;14.82;45.31;94914.22;5415171;26;20079;-47
2024/04/09 09:37:11;;;;;;;0.28;0.20;;;;;;;14.84;46.01;94922.66;5474195;26;20041;-45
2024/04/09 09:39:40;;;;;;;0.30;0.30;;;;;;;14.99;45.56;94918.97;5415493;26;20088;-50
2024/04/09 09:42:10;;;;;;;1.75;0.40;;;;;;;15.00;45.99;94931.03;5407295;26;19999;-48
2024/04/09 09:44:38;;;;;;;1.73;0.30;;;;;;;15.11;44.83;94932.97;5441305;26;19991;-45
2024/04/09 09:47:04;;;;;;;1.20;0.30;;;;;;;15.00;45.27;94933.66;5447805;26;20003;-47
2024/04/09 09:49:30;;;;;;;1.42;0.30;;;;;;;15.02;45.30;94947.31;5441592;26;19995;-48
2024/04/09 09:51:56;;;;;;;0.75;0.30;;;;;;;14.93;46.18;94949.41;5445002;26;20034;-49
2024/04/09 09:54:22;;;;;;;0.75;0.20;;;;;;;14.75;46.43;94947.50;5444366;26;20009;-47
2024/04/09 09:56:50;;;;;;;1.83;0.20;;;;;;;14.81;47.30;94940.59;5447689;26;19999;-47
2024/04/09 09:59:24;;;;;;;0.75;0.20;;;;;;;14.70;49.14;94949.94;5415215;26;20018;-46
2024/04/09 10:01:52;;;;;;;0.50;0.30;;;;;;;14.72;48.77;94973.31;5413496;26;20431;-47
2024/04/09 10:04:18;;;;;;;1.83;0.40;;;;;;;14.78;49.37;94973.25;5444202;26;20021;-50
2024/04/09 10:06:56;;;;;;;1.95;0.30;;;;;;;15.01;49.40;94985.03;5447595;26;20010;-48
2024/04/09 10:09:40;;;;;;;1.58;0.40;;;;;;;14.55;50.83;94988.66;5446750;26;19994;-46
2024/04/09 10:12:07;;;;;;;1.27;0.30;;;;;;;14.44;49.81;94990.88;5432643;26;20368;-44
2024/04/09 10:14:40;;;;;;;0.85;0.30;;;;;;;14.63;49.53;94993.66;5414372;26;20014;-48
2024/04/09 10:17:12;;;;;;;0.60;0.30;;;;;;;14.47;49.99;95000.16;5412071;26;20006;-48
2024/04/09 10:19:38;;;;;;;1.05;0.45;;;;;;;14.31;50.86;95011.84;5445241;26;20013;-42
2024/04/09 10:22:03;;;;;;;0.47;0.30;;;;;;;14.26;50.71;95007.25;5412333;26;20011;-44
2024/04/09 10:24:34;;;;;;;0.85;0.60;;;;;;;14.15;52.10;95028.81;5439453;26;20493;-44
2024/04/09 10:27:00;;;;;;;0.43;0.30;;;;;;;14.34;51.34;95035.00;5414494;26;19995;-45
2024/04/09 10:29:29;;;;;;;0.82;0.47;;;;;;;14.36;52.21;95040.03;5441570;26;20003;-46
2024/04/09 10:31:54;;;;;;;0.40;0.40;;;;;;;14.40;52.22;95036.78;5440876;26;20006;-47
2024/04/09 10:34:24;;;;;;;1.42;0.60;;;;;;;14.41;52.63;95033.19;5443338;26;20026;-46
2024/04/09 10:36:50;;;;;;;1.60;0.80;;;;;;;14.65;52.02;95036.94;5413324;26;20064;-45
2024/04/09 10:39:16;;;;;;;0.40;0.30;;;;;;;14.46;50.10;95043.81;5445146;26;19999;-46
2024/04/09 10:41:41;;;;;;;0.25;0.25;;;;;;;14.44;50.66;95048.44;5444637;26;20009;-45
2024/04/09 10:44:09;;;;;;;0.20;0.20;;;;;;;14.36;50.90;95056.53;5408443;26;20031;-45
2024/04/09 10:46:35;;;;;;;0.32;0.20;;;;;;;14.35;50.04;95059.34;5444989;26;19999;-45
2024/04/09 10:49:00;;;;;;;0.75;0.22;;;;;;;13.98;50.83;95057.19;5414824;26;19999;-42
2024/04/09 10:51:26;;;;;;;0.10;0.10;;;;;;;14.03;50.39;95078.31;5411674;26;20021;-45
2024/04/09 10:54:01;;;;;;;0.95;0.20;;;;;;;13.69;51.29;95077.50;5412146;26;20479;-46
2024/04/09 10:56:28;;;;;;;0.10;0.10;;;;;;;13.88;49.95;95080.34;5416774;26;20010;-44
2024/04/09 10:58:53;;;;;;;0.50;0.30;;;;;;;13.68;51.00;95088.16;5444010;26;20323;-43
2024/04/09 11:01:19;;;;;;;0.43;0.10;;;;;;;13.65;50.78;95085.94;5441488;26;20015;-46
2024/04/09 11:03:44;;;;;;;0.30;0.20;;;;;;;13.79;50.21;95090.19;5409129;26;19999;-47
2024/04/09 11:06:14;;;;;;;0.10;0.10;;;;;;;13.81;51.38;95100.44;5438574;26;20003;-43
2024/04/09 11:08:39;;;;;;;0.20;0.20;;;;;;;13.76;50.43;95110.69;5438561;26;20015;-47
2024/04/09 11:11:05;;;;;;;0.40;0.30;;;;;;;13.47;51.58;95118.66;5441922;26;20015;-47
2024/04/09 11:13:33;;;;;;;0.55;0.30;;;;;;;13.57;52.17;95122.72;5445335;26;20007;-46
2024/04/09 11:16:02;;;;;;;0.38;0.30;;;;;;;13.61;52.60;95122.13;5414022;26;19999;-46
2024/04/09 11:18:28;;;;;;;0.30;0.20;;;;;;;13.57;52.18;95120.09;5446164;26;19998;-45
2024/04/09 11:20:55;;;;;;;0.85;0.20;;;;;;;13.57;52.75;95107.84;5411509;26;20013;-47
2024/04/09 11:23:24;;;;;;;0.43;0.40;;;;;;;13.37;54.23;95118.25;5447767;26;20068;-47
2024/04/09 11:25:54;;;;;;;0.45;0.20;;;;;;;13.41;54.27;95118.66;5448086;26;20073;-49
2024/04/09 11:28:20;;;;;;;0.30;0.20;;;;;;;13.47;53.02;95117.88;5446942;26;20010;-48